createdAt,value
2018-11-14T00:00:52.310Z,4.97
2018-11-14T00:03:19.965Z,3.27
2018-11-14T00:05:47.525Z,3.00
2018-11-14T00:08:15.045Z,6.60
2018-11-14T00:10:42.577Z,3.40
2018-11-14T00:13:10.107Z,3.00
2018-11-14T00:15:37.701Z,3.20
2018-11-14T00:18:06.138Z,3.73
2018-11-14T00:20:33.745Z,3.83
2018-11-14T00:23:01.313Z,2.87
2018-11-14T00:25:28.910Z,6.17
2018-11-14T00:27:56.497Z,7.30
2018-11-14T00:30:25.099Z,2.40
2018-11-14T00:32:52.883Z,3.60
2018-11-14T00:35:20.491Z,2.23
2018-11-14T00:37:48.472Z,2.40
2018-11-14T00:40:16.887Z,4.30
2018-11-14T00:42:45.149Z,2.70
2018-11-14T00:45:14.115Z,2.93
2018-11-14T00:47:42.709Z,3.47
2018-11-14T00:50:12.326Z,4.73
2018-11-14T00:52:40.289Z,4.47
2018-11-14T00:55:10.399Z,6.20
2018-11-14T00:57:38.074Z,4.20
2018-11-14T01:00:09.176Z,3.50
2018-11-14T01:02:37.739Z,3.20
2018-11-14T01:05:06.353Z,4.80
2018-11-14T01:07:33.861Z,11.10
2018-11-14T01:10:01.498Z,7.17
2018-11-14T01:12:29.082Z,4.73
2018-11-14T01:14:56.643Z,4.53
2018-11-14T01:17:24.204Z,4.47
2018-11-14T01:19:51.736Z,4.93
2018-11-14T01:22:19.432Z,3.90
2018-11-14T01:24:47.020Z,4.77
2018-11-14T01:27:14.552Z,6.13
2018-11-14T01:29:42.169Z,5.83
2018-11-14T01:32:09.787Z,11.23
2018-11-14T01:34:37.407Z,8.33
2018-11-14T01:37:05.481Z,6.90
2018-11-14T01:39:33.002Z,5.30
2018-11-14T01:42:00.517Z,9.33
2018-11-14T01:44:28.006Z,7.23
2018-11-14T01:46:55.514Z,7.67
2018-11-14T01:49:22.995Z,6.00
2018-11-14T01:51:50.608Z,6.73
2018-11-14T01:54:18.188Z,7.03
2018-11-14T01:56:45.708Z,8.50
2018-11-14T01:59:13.226Z,6.67
2018-11-14T02:01:40.825Z,8.43
2018-11-14T02:04:08.425Z,8.43
2018-11-14T02:06:36.024Z,8.80
2018-11-14T02:09:04.817Z,12.40
2018-11-14T02:11:32.329Z,6.60
2018-11-14T02:13:59.904Z,5.53
2018-11-14T02:16:27.471Z,7.13
2018-11-14T02:18:54.963Z,5.97
2018-11-14T02:21:22.515Z,5.63
2018-11-14T02:23:50.177Z,5.73
2018-11-14T02:26:17.780Z,6.27
2018-11-14T02:28:45.305Z,6.90
2018-11-14T02:31:12.876Z,9.80
2018-11-14T02:33:40.438Z,8.77
2018-11-14T02:36:07.938Z,7.97
2018-11-14T02:38:35.573Z,8.60
2018-11-14T02:41:03.137Z,11.93
2018-11-14T02:43:30.662Z,9.70
2018-11-14T02:45:58.209Z,9.30
2018-11-14T02:48:25.750Z,9.40
2018-11-14T02:51:04.726Z,9.60
2018-11-14T02:53:32.265Z,12.83
2018-11-14T02:56:08.361Z,12.00
2018-11-14T02:58:35.875Z,7.60
2018-11-14T03:01:03.444Z,7.10
2018-11-14T03:03:31.055Z,6.00
2018-11-14T03:05:58.612Z,8.33
2018-11-14T03:08:26.207Z,7.27
2018-11-14T03:10:53.802Z,7.63
2018-11-14T03:13:21.421Z,8.20
2018-11-14T03:15:48.980Z,9.00
2018-11-14T03:18:16.525Z,5.67
2018-11-14T03:20:44.053Z,7.10
2018-11-14T03:23:11.673Z,6.27
2018-11-14T03:25:39.287Z,6.93
2018-11-14T03:28:06.834Z,7.07
2018-11-14T03:30:34.353Z,7.73
2018-11-14T03:33:01.961Z,6.90
2018-11-14T03:35:35.264Z,8.60
2018-11-14T03:38:02.883Z,9.03
2018-11-14T03:40:30.438Z,8.90
2018-11-14T03:42:58.005Z,11.23
2018-11-14T03:45:25.529Z,7.97
2018-11-14T03:47:53.134Z,8.80
2018-11-14T03:50:20.689Z,11.17
2018-11-14T03:52:48.187Z,14.13
2018-11-14T03:55:15.816Z,10.77
2018-11-14T03:57:43.350Z,10.00
2018-11-14T04:00:13.455Z,11.60
2018-11-14T04:02:41.322Z,13.57
2018-11-14T04:05:09.230Z,13.90
2018-11-14T04:07:36.805Z,13.27
2018-11-14T04:10:05.835Z,14.17
2018-11-14T04:12:33.425Z,14.60
2018-11-14T04:15:01.122Z,17.30
2018-11-14T04:17:28.699Z,13.10
2018-11-14T04:19:56.223Z,15.17
2018-11-14T04:22:23.768Z,14.50
2018-11-14T04:24:51.353Z,16.47
2018-11-14T04:27:18.931Z,18.77
2018-11-14T04:29:46.440Z,14.43
2018-11-14T04:32:14.079Z,15.37
2018-11-14T04:34:41.677Z,15.00
2018-11-14T04:37:10.345Z,22.20
2018-11-14T04:39:37.935Z,12.50
2018-11-14T04:42:05.454Z,10.00
2018-11-14T04:44:33.063Z,13.53
2018-11-14T04:47:00.616Z,10.40
2018-11-14T04:49:28.173Z,13.80
2018-11-14T04:51:55.705Z,12.87
2018-11-14T04:54:23.300Z,10.40
2018-11-14T04:56:50.893Z,10.70
2018-11-14T04:59:18.505Z,11.40
2018-11-14T05:01:46.025Z,9.70
2018-11-14T05:04:13.556Z,8.90
2018-11-14T05:06:41.186Z,12.93
2018-11-14T05:09:10.477Z,8.50
2018-11-14T05:11:38.019Z,10.03
2018-11-14T05:14:06.302Z,8.63
2018-11-14T05:16:33.937Z,9.30
2018-11-14T05:19:01.726Z,8.20
2018-11-14T05:21:29.359Z,8.40
2018-11-14T05:23:57.043Z,7.90
2018-11-14T05:26:24.679Z,8.20
2018-11-14T05:28:52.265Z,6.67
2018-11-14T05:31:19.907Z,8.30
2018-11-14T05:33:47.605Z,6.63
2018-11-14T05:36:15.283Z,7.87
2018-11-14T05:38:42.888Z,6.57
2018-11-14T05:41:10.639Z,6.60
2018-11-14T05:43:38.394Z,8.30
2018-11-14T05:46:18.995Z,9.50
2018-11-14T05:49:05.038Z,5.60
2018-11-14T05:51:32.629Z,8.43
2018-11-14T05:54:01.016Z,8.00
2018-11-14T05:56:28.695Z,7.67
2018-11-14T05:58:56.331Z,6.97
2018-11-14T06:01:23.918Z,7.43
2018-11-14T06:03:51.457Z,8.57
2018-11-14T06:06:19.069Z,7.90
2018-11-14T06:08:46.684Z,10.70
2018-11-14T06:11:14.274Z,8.70
2018-11-14T06:13:41.937Z,7.67
2018-11-14T06:16:09.464Z,9.57
2018-11-14T06:18:37.050Z,8.17
2018-11-14T06:21:05.108Z,9.07
2018-11-14T06:23:32.805Z,10.83
2018-11-14T06:26:00.356Z,9.60
2018-11-14T06:28:28.102Z,10.33
2018-11-14T06:30:55.651Z,8.53
2018-11-14T06:33:23.278Z,10.67
2018-11-14T06:35:50.840Z,10.37
2018-11-14T06:38:18.441Z,9.93
2018-11-14T06:40:46.114Z,9.70
2018-11-14T06:43:13.689Z,8.67
2018-11-14T06:45:42.414Z,9.00
2018-11-14T06:48:10.195Z,7.87
2018-11-14T06:50:37.712Z,9.03
2018-11-14T06:53:06.184Z,7.33
2018-11-14T06:55:33.917Z,5.50
2018-11-14T06:58:01.778Z,6.63
2018-11-14T07:00:32.185Z,10.33
2018-11-14T07:03:00.823Z,5.83
2018-11-14T07:05:28.583Z,6.83
2018-11-14T07:07:56.159Z,4.90
2018-11-14T07:10:28.159Z,6.53
2018-11-14T07:13:01.512Z,8.10
2018-11-14T07:15:29.058Z,7.20
2018-11-14T07:17:56.739Z,11.03
2018-11-14T07:20:25.725Z,7.83
2018-11-14T07:22:53.229Z,8.93
2018-11-14T07:25:20.861Z,10.10
2018-11-14T07:27:48.413Z,12.33
2018-11-14T07:30:18.759Z,9.80
2018-11-14T07:32:47.691Z,13.73
2018-11-14T07:35:15.859Z,11.07
2018-11-14T07:37:48.039Z,13.03
2018-11-14T07:40:15.563Z,10.17
2018-11-14T07:42:43.157Z,9.60
2018-11-14T07:45:12.478Z,19.23
2018-11-14T07:47:40.052Z,17.23
2018-11-14T07:50:10.925Z,10.90
2018-11-14T07:52:38.461Z,10.40
2018-11-14T07:55:07.348Z,10.63
2018-11-14T07:57:35.369Z,13.20
2018-11-14T08:00:03.529Z,15.80
2018-11-14T08:02:31.146Z,6.17
2018-11-14T08:04:58.735Z,7.00
2018-11-14T08:07:26.395Z,8.43
2018-11-14T08:09:53.899Z,6.27
2018-11-14T08:12:21.488Z,6.67
2018-11-14T08:14:49.116Z,5.57
2018-11-14T08:17:16.669Z,7.63
2018-11-14T08:19:44.273Z,5.40
2018-11-14T08:22:11.819Z,12.40
2018-11-14T08:24:39.318Z,6.63
2018-11-14T08:27:07.112Z,5.83
2018-11-14T08:29:34.746Z,6.33
2018-11-14T08:32:02.255Z,7.03
2018-11-14T08:34:29.773Z,9.47
2018-11-14T08:36:57.354Z,7.83
2018-11-14T08:39:24.967Z,7.90
2018-11-14T08:41:52.623Z,6.90
2018-11-14T08:44:20.231Z,6.27
2018-11-14T08:46:47.826Z,7.87
2018-11-14T08:49:15.425Z,7.77
2018-11-14T08:51:43.076Z,7.67
2018-11-14T08:54:10.633Z,6.47
2018-11-14T08:56:38.272Z,6.47
2018-11-14T08:59:05.925Z,8.70
2018-11-14T09:01:33.443Z,7.17
2018-11-14T09:04:00.994Z,6.43
2018-11-14T09:06:28.585Z,7.07
2018-11-14T09:08:56.156Z,7.60
2018-11-14T09:11:24.025Z,7.47
2018-11-14T09:13:51.553Z,7.27
2018-11-14T09:16:19.139Z,7.53
2018-11-14T09:18:46.822Z,9.10
2018-11-14T09:21:14.364Z,9.57
2018-11-14T09:23:41.937Z,9.30
2018-11-14T09:26:09.461Z,7.73
2018-11-14T09:28:37.004Z,9.30
2018-11-14T09:31:04.714Z,7.73
2018-11-14T09:33:32.266Z,7.70
2018-11-14T09:35:59.895Z,8.40
2018-11-14T09:38:27.439Z,10.27
2018-11-14T09:40:55.098Z,9.80
2018-11-14T09:43:22.535Z,10.80
2018-11-14T09:45:50.085Z,8.67
2018-11-14T09:48:17.722Z,12.43
2018-11-14T09:50:45.282Z,9.23
2018-11-14T09:53:12.885Z,9.70
2018-11-14T09:55:40.525Z,9.60
2018-11-14T09:58:08.089Z,14.30
2018-11-14T10:00:35.730Z,11.70
2018-11-14T10:03:14.329Z,17.87
2018-11-14T10:05:41.924Z,17.93
2018-11-14T10:08:09.661Z,13.73
2018-11-14T10:10:37.433Z,13.43
2018-11-14T10:14:34.860Z,13.57
2018-11-14T10:17:02.502Z,12.37
2018-11-14T10:19:30.076Z,13.10
2018-11-14T10:21:57.700Z,14.77
2018-11-14T10:24:26.394Z,12.87
2018-11-14T10:26:54.002Z,11.40
2018-11-14T10:29:21.612Z,14.60
2018-11-14T10:31:53.219Z,16.30
2018-11-14T10:34:20.864Z,14.67
2018-11-14T10:36:48.810Z,15.60
2018-11-14T10:39:16.394Z,18.90
2018-11-14T10:41:44.099Z,13.17
2018-11-14T10:44:11.751Z,13.87
2018-11-14T10:46:39.362Z,15.10
2018-11-14T10:49:06.965Z,11.77
2018-11-14T10:51:34.594Z,15.37
2018-11-14T10:56:25.003Z,14.30
2018-11-14T10:58:52.526Z,15.07
2018-11-14T11:01:25.955Z,13.93
2018-11-14T11:03:59.219Z,14.67
2018-11-14T11:06:37.718Z,18.13
2018-11-14T11:09:13.954Z,13.93
2018-11-14T11:11:48.305Z,15.50
2018-11-14T11:14:22.785Z,15.33
2018-11-14T11:16:56.067Z,23.03
2018-11-14T11:19:26.377Z,14.67
2018-11-14T11:21:53.961Z,15.53
2018-11-14T11:24:22.301Z,14.13
2018-11-14T11:26:55.266Z,15.43
2018-11-14T11:29:22.916Z,14.50
2018-11-14T11:31:50.773Z,14.20
2018-11-14T11:34:18.491Z,17.23
2018-11-14T11:36:46.149Z,16.23
2018-11-14T11:39:15.615Z,14.33
2018-11-14T11:41:43.966Z,19.33
2018-11-14T11:44:11.634Z,16.87
2018-11-14T11:46:40.285Z,13.00
2018-11-14T11:49:08.659Z,17.63
2018-11-14T11:51:36.485Z,15.47
2018-11-14T11:54:05.341Z,17.00
2018-11-14T11:56:32.955Z,17.30
2018-11-14T11:59:01.698Z,18.43
2018-11-14T12:01:34.536Z,17.90
2018-11-14T12:04:03.501Z,18.27
2018-11-14T12:06:32.323Z,16.37
2018-11-14T12:08:59.933Z,16.30
2018-11-14T12:11:27.551Z,17.57
2018-11-14T12:13:55.260Z,17.10
2018-11-14T12:16:22.874Z,16.17
2018-11-14T12:21:56.890Z,17.73
2018-11-14T12:24:24.584Z,12.60
2018-11-14T12:26:52.283Z,14.57
2018-11-14T12:29:19.889Z,15.70
2018-11-14T12:31:47.589Z,15.47
2018-11-14T12:34:15.197Z,13.33
2018-11-14T12:36:42.899Z,18.17
2018-11-14T12:39:10.665Z,12.60
2018-11-14T12:41:38.274Z,12.97
2018-11-14T12:44:20.386Z,12.90
2018-11-14T12:46:48.267Z,14.90
2018-11-14T12:49:16.065Z,12.37
2018-11-14T12:51:43.729Z,13.10
2018-11-14T12:54:11.377Z,13.47
2018-11-14T12:56:38.941Z,14.73
2018-11-14T12:59:06.572Z,15.17
2018-11-14T13:01:34.206Z,13.80
2018-11-14T13:04:01.810Z,17.17
2018-11-14T13:06:29.478Z,15.50
2018-11-14T13:08:59.994Z,14.20
2018-11-14T13:11:27.679Z,16.57
2018-11-14T13:13:55.539Z,16.20
2018-11-14T13:16:23.232Z,18.90
2018-11-14T13:18:50.954Z,15.53
2018-11-14T13:21:18.587Z,17.53
2018-11-14T13:23:46.281Z,15.40
2018-11-14T13:28:48.253Z,17.10
2018-11-14T13:31:15.877Z,17.87
2018-11-14T13:33:43.431Z,19.77
2018-11-14T13:36:21.971Z,15.97
2018-11-14T13:38:49.555Z,18.10
2018-11-14T13:41:17.194Z,17.93
2018-11-14T13:43:44.986Z,17.27
2018-11-14T13:46:12.884Z,17.43
2018-11-14T13:48:40.582Z,14.27
2018-11-14T13:51:08.479Z,16.07
2018-11-14T13:53:35.990Z,19.10
2018-11-14T13:56:03.735Z,16.07
2018-11-14T13:58:32.419Z,19.67
2018-11-14T14:01:05.638Z,19.03
2018-11-14T14:03:33.424Z,14.70
2018-11-14T14:06:01.031Z,14.70
2018-11-14T14:08:28.722Z,17.77
2018-11-14T14:10:56.541Z,20.83
2018-11-14T14:13:24.255Z,16.93
2018-11-14T14:15:51.885Z,19.73
2018-11-14T14:18:19.592Z,20.83
2018-11-14T14:20:48.978Z,16.00
2018-11-14T14:23:16.594Z,16.30
2018-11-14T14:25:44.367Z,16.83
2018-11-14T14:28:12.154Z,14.60
2018-11-14T14:30:39.983Z,18.03
2018-11-14T14:33:07.584Z,15.80
2018-11-14T14:35:35.263Z,16.73
2018-11-14T14:38:03.036Z,41.43
2018-11-14T14:40:30.577Z,21.60
2018-11-14T14:42:58.255Z,17.30
2018-11-14T14:45:26.624Z,17.70
2018-11-14T14:47:54.254Z,19.80
2018-11-14T14:50:21.869Z,26.43
2018-11-14T14:52:49.525Z,18.73
2018-11-14T14:55:20.237Z,21.60
2018-11-14T14:57:48.479Z,22.33
2018-11-14T15:00:19.329Z,24.43
2018-11-14T15:02:47.973Z,23.90
2018-11-14T15:05:15.672Z,22.80
2018-11-14T15:07:43.362Z,20.87
2018-11-14T15:10:13.501Z,19.77
2018-11-14T15:12:41.240Z,22.17
2018-11-14T15:15:08.945Z,20.77
2018-11-14T15:17:36.733Z,21.40
2018-11-14T15:20:08.243Z,19.97
2018-11-14T15:22:35.899Z,21.50
2018-11-14T15:25:05.034Z,22.77
2018-11-14T15:27:32.674Z,22.67
2018-11-14T15:30:01.167Z,20.97
2018-11-14T15:32:28.893Z,21.47
2018-11-14T15:34:56.638Z,21.23
2018-11-14T15:37:24.357Z,29.83
2018-11-14T15:39:52.011Z,22.93
2018-11-14T15:42:19.590Z,22.03
2018-11-14T15:44:47.100Z,23.93
2018-11-14T15:47:19.752Z,20.70
2018-11-14T15:49:48.037Z,24.23
2018-11-14T15:52:15.879Z,24.30
2018-11-14T15:54:43.536Z,28.93
2018-11-14T15:57:11.285Z,20.43
2018-11-14T15:59:41.176Z,22.10
2018-11-14T16:02:08.878Z,28.03
2018-11-14T16:04:36.537Z,26.37
2018-11-14T16:07:04.681Z,34.80
2018-11-14T16:09:32.376Z,25.17
2018-11-14T16:12:00.127Z,26.83
2018-11-14T16:14:27.818Z,29.43
2018-11-14T16:16:55.473Z,30.70
2018-11-14T16:19:23.427Z,27.90
2018-11-14T16:21:51.202Z,26.40
2018-11-14T16:24:18.836Z,26.97
2018-11-14T16:26:46.417Z,25.53
2018-11-14T16:29:14.039Z,24.50
2018-11-14T16:31:41.717Z,28.37
2018-11-14T16:34:09.376Z,26.43
2018-11-14T16:36:37.022Z,24.57
2018-11-14T16:39:08.277Z,27.27
2018-11-14T16:41:35.819Z,25.57
2018-11-14T16:44:03.897Z,25.63
2018-11-14T16:46:31.612Z,30.53
2018-11-14T16:48:59.628Z,21.93
2018-11-14T16:51:28.502Z,25.93
2018-11-14T16:53:57.649Z,22.87
2018-11-14T16:56:26.698Z,24.00
2018-11-14T16:58:54.312Z,23.30
2018-11-14T17:01:22.059Z,22.47
2018-11-14T17:03:50.643Z,22.03
2018-11-14T17:06:18.399Z,20.00
2018-11-14T17:08:46.524Z,21.20
2018-11-14T17:11:14.327Z,22.60
2018-11-14T17:13:43.819Z,19.47
2018-11-14T17:16:11.584Z,20.90
2018-11-14T17:18:39.251Z,20.23
2018-11-14T17:21:06.911Z,25.63
2018-11-14T17:23:34.501Z,25.47
2018-11-14T17:26:02.166Z,23.87
2018-11-14T17:28:29.818Z,24.37
2018-11-14T17:30:57.540Z,25.20
2018-11-14T17:33:25.209Z,22.90
2018-11-14T17:35:52.855Z,18.23
2018-11-14T17:38:20.429Z,25.13
2018-11-14T17:40:48.110Z,20.00
2018-11-14T17:43:15.732Z,21.33
2018-11-14T17:45:44.239Z,18.47
2018-11-14T17:48:12.148Z,20.20
2018-11-14T17:50:39.884Z,21.20
2018-11-14T17:53:07.321Z,22.17
2018-11-14T17:55:34.950Z,20.97
2018-11-14T17:58:02.476Z,22.13
2018-11-14T18:00:30.773Z,19.03
2018-11-14T18:02:58.427Z,20.60
2018-11-14T18:05:27.484Z,18.07
2018-11-14T18:07:55.398Z,17.87
2018-11-14T18:10:24.377Z,20.30
2018-11-14T18:12:53.019Z,21.87
2018-11-14T18:15:20.623Z,19.73
2018-11-14T18:17:49.195Z,19.37
2018-11-14T18:20:18.208Z,18.63
2018-11-14T18:22:46.361Z,15.10
2018-11-14T18:25:14.286Z,15.23
2018-11-14T18:27:42.321Z,15.70
2018-11-14T18:30:14.673Z,15.17
2018-11-14T18:32:42.340Z,16.90
2018-11-14T18:35:14.037Z,15.37
2018-11-14T18:37:42.375Z,16.73
2018-11-14T18:40:12.540Z,15.43
2018-11-14T18:42:48.901Z,15.87
2018-11-14T18:45:20.752Z,16.93
2018-11-14T18:47:48.591Z,14.00
2018-11-14T18:50:16.995Z,14.93
2018-11-14T18:52:45.457Z,14.70
2018-11-14T18:55:14.615Z,16.57
2018-11-14T18:57:42.498Z,16.00
2018-11-14T19:00:16.585Z,15.67
2018-11-14T19:02:44.229Z,15.10
2018-11-14T19:05:12.456Z,16.30
2018-11-14T19:07:40.750Z,15.13
2018-11-14T19:10:10.318Z,17.77
2018-11-14T19:12:38.507Z,16.80
2018-11-14T19:15:09.248Z,22.83
2018-11-14T19:17:37.102Z,18.77
2018-11-14T19:20:05.884Z,18.67
2018-11-14T19:22:33.539Z,19.83
2018-11-14T19:25:01.203Z,17.90
2018-11-14T19:27:28.862Z,27.00
2018-11-14T19:29:56.474Z,18.60
2018-11-14T19:32:24.278Z,20.27
2018-11-14T19:34:51.877Z,18.53
2018-11-14T19:37:19.548Z,18.87
2018-11-14T19:39:50.173Z,19.60
2018-11-14T19:42:17.773Z,18.07
2018-11-14T19:44:45.407Z,19.20
2018-11-14T19:47:13.016Z,21.10
2018-11-14T19:49:40.636Z,19.37
2018-11-14T19:52:08.279Z,18.90
2018-11-14T19:54:40.454Z,17.20
2018-11-14T19:57:08.840Z,18.53
2018-11-14T19:59:37.089Z,19.93
2018-11-14T20:02:05.335Z,22.17
2018-11-14T20:04:33.326Z,18.93
2018-11-14T20:07:32.081Z,18.17
2018-11-14T20:10:01.945Z,16.77
2018-11-14T20:12:30.187Z,13.93
2018-11-14T20:14:58.456Z,15.77
2018-11-14T20:17:26.881Z,15.83
2018-11-14T20:22:50.795Z,12.77
2018-11-14T20:25:18.407Z,15.00
2018-11-14T20:27:47.877Z,14.97
2018-11-14T20:30:20.431Z,16.43
2018-11-14T20:32:49.456Z,15.83
2018-11-14T20:35:18.418Z,24.67
2018-11-14T20:37:46.159Z,39.50
2018-11-14T20:40:15.229Z,26.03
2018-11-14T20:42:43.168Z,17.27
2018-11-14T20:45:13.181Z,15.47
2018-11-14T20:47:40.887Z,15.30
2018-11-14T20:50:11.181Z,14.80
2018-11-14T20:52:38.905Z,18.57
2018-11-14T20:55:07.755Z,12.83
2018-11-14T20:57:35.956Z,14.43
2018-11-14T21:00:04.140Z,13.53
2018-11-14T21:02:31.757Z,13.90
2018-11-14T21:04:59.347Z,14.53
2018-11-14T21:07:27.015Z,18.60
2018-11-14T21:09:54.705Z,17.47
2018-11-14T21:12:22.209Z,15.67
2018-11-14T21:14:49.912Z,15.43
2018-11-14T21:17:17.490Z,16.57
2018-11-14T21:19:45.169Z,15.93
2018-11-14T21:22:13.806Z,17.00
2018-11-14T21:24:41.498Z,16.60
2018-11-14T21:27:09.284Z,16.50
2018-11-14T21:29:36.816Z,16.20
2018-11-14T21:32:04.953Z,18.00
2018-11-14T21:34:32.614Z,16.13
2018-11-14T21:37:00.199Z,13.83
2018-11-14T21:39:27.734Z,17.23
2018-11-14T21:41:55.344Z,13.80
2018-11-14T21:44:22.998Z,13.50
2018-11-14T21:46:50.642Z,15.10
2018-11-14T21:49:23.801Z,13.53
2018-11-14T21:51:51.354Z,15.17
2018-11-14T21:54:19.658Z,15.80
2018-11-14T21:56:47.286Z,14.00
2018-11-14T21:59:14.815Z,12.83
2018-11-14T22:01:42.772Z,15.20
2018-11-14T22:04:10.471Z,16.73
2018-11-14T22:06:37.983Z,13.40
2018-11-14T22:09:07.964Z,13.00
2018-11-14T22:11:35.600Z,21.33
2018-11-14T22:14:03.261Z,15.07
2018-11-14T22:16:30.791Z,17.03
2018-11-14T22:18:58.393Z,14.13
2018-11-14T22:21:25.990Z,15.63
2018-11-14T22:23:53.590Z,15.27
2018-11-14T22:26:21.183Z,18.47
2018-11-14T22:28:48.762Z,15.80
2018-11-14T22:31:16.340Z,15.20
2018-11-14T22:33:43.958Z,18.57
2018-11-14T22:36:11.461Z,15.13
2018-11-14T22:38:39.024Z,11.50
2018-11-14T22:41:06.585Z,12.27
2018-11-14T22:43:34.206Z,13.90
2018-11-14T22:46:01.862Z,12.57
2018-11-14T22:48:29.477Z,12.57
2018-11-14T22:50:57.130Z,14.53
2018-11-14T22:53:24.700Z,15.27
2018-11-14T22:55:52.301Z,12.13
2018-11-14T22:58:19.917Z,12.00
2018-11-14T23:00:47.496Z,19.40
2018-11-14T23:03:15.298Z,15.77
2018-11-14T23:05:42.849Z,12.27
2018-11-14T23:08:10.425Z,13.20
2018-11-14T23:10:37.982Z,14.77
2018-11-14T23:13:05.659Z,16.43
2018-11-14T23:15:33.209Z,10.40
2018-11-14T23:18:00.808Z,10.73
2018-11-14T23:20:28.445Z,12.60
2018-11-14T23:22:56.370Z,9.77
2018-11-14T23:25:24.065Z,13.93
2018-11-14T23:27:52.993Z,11.00
2018-11-14T23:30:21.737Z,10.83
2018-11-14T23:32:50.495Z,11.17
2018-11-14T23:35:23.314Z,11.97
2018-11-14T23:37:53.091Z,9.97
2018-11-14T23:40:20.833Z,11.27
2018-11-14T23:42:48.955Z,10.77
2018-11-14T23:45:17.406Z,12.67
2018-11-14T23:47:45.587Z,9.90
2018-11-14T23:50:14.481Z,14.00
2018-11-14T23:52:43.352Z,16.67
2018-11-14T23:55:11.013Z,12.23
2018-11-14T23:57:39.002Z,14.87
